sensor_id;sensor_type;location;lat;lon;timestamp;temperature;humidity
56336;DHT22;42241;53.510;10.170;2022-08-02T00:02:10;13.20;99.90
56336;DHT22;42241;53.510;10.170;2022-08-02T00:04:35;13.20;99.90
56336;DHT22;42241;53.510;10.170;2022-08-02T00:07:01;13.20;99.90
56336;DHT22;42241;53.510;10.170;2022-08-02T00:09:27;13.20;99.90
56336;DHT22;42241;53.510;10.170;2022-08-02T00:11:52;13.20;99.90
56336;DHT22;42241;53.510;10.170;2022-08-02T00:14:18;13.20;99.90
56336;DHT22;42241;53.510;10.170;2022-08-02T00:16:43;13.10;99.90
56336;DHT22;42241;53.510;10.170;2022-08-02T00:19:09;13.20;99.90
56336;DHT22;42241;53.510;10.170;2022-08-02T00:21:34;13.10;99.90
56336;DHT22;42241;53.510;10.170;2022-08-02T00:24:00;13.10;99.90
56336;DHT22;42241;53.510;10.170;2022-08-02T00:26:25;13.10;99.90
56336;DHT22;42241;53.510;10.170;2022-08-02T00:28:51;13.00;99.90
56336;DHT22;42241;53.510;10.170;2022-08-02T00:31:17;13.00;99.90
56336;DHT22;42241;53.510;10.170;2022-08-02T00:33:42;13.00;99.90
56336;DHT22;42241;53.510;10.170;2022-08-02T00:36:08;12.90;99.90
56336;DHT22;42241;53.510;10.170;2022-08-02T00:38:33;12.90;99.90
56336;DHT22;42241;53.510;10.170;2022-08-02T00:40:59;12.90;99.90
56336;DHT22;42241;53.510;10.170;2022-08-02T00:43:24;12.80;99.90
56336;DHT22;42241;53.510;10.170;2022-08-02T00:45:50;12.70;99.90
56336;DHT22;42241;53.510;10.170;2022-08-02T00:48:15;12.70;99.90
56336;DHT22;42241;53.510;10.170;2022-08-02T00:50:41;12.60;99.90
56336;DHT22;42241;53.510;10.170;2022-08-02T00:53:07;12.60;99.90
56336;DHT22;42241;53.510;10.170;2022-08-02T00:55:36;12.60;99.90
56336;DHT22;42241;53.510;10.170;2022-08-02T00:58:02;12.60;99.90
56336;DHT22;42241;53.510;10.170;2022-08-02T01:00:28;12.70;99.90
56336;DHT22;42241;53.510;10.170;2022-08-02T01:02:53;12.70;99.90
56336;DHT22;42241;53.510;10.170;2022-08-02T01:05:19;12.70;99.90
56336;DHT22;42241;53.510;10.170;2022-08-02T01:07:45;12.60;99.90
56336;DHT22;42241;53.510;10.170;2022-08-02T01:10:10;12.60;99.90
56336;DHT22;42241;53.510;10.170;2022-08-02T01:12:36;12.60;99.90
56336;DHT22;42241;53.510;10.170;2022-08-02T01:15:06;12.60;99.90
56336;DHT22;42241;53.510;10.170;2022-08-02T01:17:49;12.60;99.90
56336;DHT22;42241;53.510;10.170;2022-08-02T01:25:32;12.40;99.90
56336;DHT22;42241;53.510;10.170;2022-08-02T01:28:21;12.40;99.90
56336;DHT22;42241;53.510;10.170;2022-08-02T01:30:52;12.40;99.90
56336;DHT22;42241;53.510;10.170;2022-08-02T01:33:20;12.40;99.90
56336;DHT22;42241;53.510;10.170;2022-08-02T01:35:46;12.40;99.90
56336;DHT22;42241;53.510;10.170;2022-08-02T01:38:34;12.40;99.90
56336;DHT22;42241;53.510;10.170;2022-08-02T01:41:01;12.40;99.90
56336;DHT22;42241;53.510;10.170;2022-08-02T01:43:28;12.30;99.90
56336;DHT22;42241;53.510;10.170;2022-08-02T01:45:56;12.40;99.90
56336;DHT22;42241;53.510;10.170;2022-08-02T01:48:25;12.30;99.90
56336;DHT22;42241;53.510;10.170;2022-08-02T01:50:50;12.30;99.90
56336;DHT22;42241;53.510;10.170;2022-08-02T01:53:17;12.30;99.90
56336;DHT22;42241;53.510;10.170;2022-08-02T01:55:43;12.30;99.90
56336;DHT22;42241;53.510;10.170;2022-08-02T01:58:09;12.20;99.90
56336;DHT22;42241;53.510;10.170;2022-08-02T02:00:39;12.20;99.90
56336;DHT22;42241;53.510;10.170;2022-08-02T02:03:06;12.20;99.90
56336;DHT22;42241;53.510;10.170;2022-08-02T02:05:33;12.20;99.90
56336;DHT22;42241;53.510;10.170;2022-08-02T02:08:00;12.20;99.90
56336;DHT22;42241;53.510;10.170;2022-08-02T02:10:28;12.20;99.90
56336;DHT22;42241;53.510;10.170;2022-08-02T02:12:55;12.20;99.90
56336;DHT22;42241;53.510;10.170;2022-08-02T02:15:21;12.20;99.90
56336;DHT22;42241;53.510;10.170;2022-08-02T02:17:48;12.20;99.90
56336;DHT22;42241;53.510;10.170;2022-08-02T02:20:16;12.20;99.90
56336;DHT22;42241;53.510;10.170;2022-08-02T02:22:41;12.20;99.90
56336;DHT22;42241;53.510;10.170;2022-08-02T02:25:07;12.10;99.90
56336;DHT22;42241;53.510;10.170;2022-08-02T02:27:33;12.00;99.90
56336;DHT22;42241;53.510;10.170;2022-08-02T02:30:00;12.00;99.90
56336;DHT22;42241;53.510;10.170;2022-08-02T02:32:26;12.00;99.90
56336;DHT22;42241;53.510;10.170;2022-08-02T02:34:52;11.90;99.90
56336;DHT22;42241;53.510;10.170;2022-08-02T02:37:20;11.90;99.90
56336;DHT22;42241;53.510;10.170;2022-08-02T02:39:47;11.80;99.90
56336;DHT22;42241;53.510;10.170;2022-08-02T02:42:14;11.80;99.90
56336;DHT22;42241;53.510;10.170;2022-08-02T02:44:41;11.80;99.90
56336;DHT22;42241;53.510;10.170;2022-08-02T02:47:07;11.70;99.90
56336;DHT22;42241;53.510;10.170;2022-08-02T02:49:33;11.70;99.90
56336;DHT22;42241;53.510;10.170;2022-08-02T02:51:59;11.70;99.90
56336;DHT22;42241;53.510;10.170;2022-08-02T02:54:26;11.70;99.90
56336;DHT22;42241;53.510;10.170;2022-08-02T02:56:55;11.70;99.90
56336;DHT22;42241;53.510;10.170;2022-08-02T02:59:22;11.60;99.90
56336;DHT22;42241;53.510;10.170;2022-08-02T03:01:47;11.60;99.90
56336;DHT22;42241;53.510;10.170;2022-08-02T03:04:13;11.60;99.90
56336;DHT22;42241;53.510;10.170;2022-08-02T03:06:39;11.50;99.90
56336;DHT22;42241;53.510;10.170;2022-08-02T03:09:05;11.50;99.90
56336;DHT22;42241;53.510;10.170;2022-08-02T03:11:31;11.50;99.90
56336;DHT22;42241;53.510;10.170;2022-08-02T03:14:01;11.50;99.90
56336;DHT22;42241;53.510;10.170;2022-08-02T03:16:27;11.50;99.90
56336;DHT22;42241;53.510;10.170;2022-08-02T03:18:53;11.60;99.90
56336;DHT22;42241;53.510;10.170;2022-08-02T03:21:18;11.60;99.90
56336;DHT22;42241;53.510;10.170;2022-08-02T03:23:45;11.60;99.90
56336;DHT22;42241;53.510;10.170;2022-08-02T03:26:10;11.60;99.90
56336;DHT22;42241;53.510;10.170;2022-08-02T03:28:36;11.70;99.90
56336;DHT22;42241;53.510;10.170;2022-08-02T03:31:02;11.70;99.90
56336;DHT22;42241;53.510;10.170;2022-08-02T03:33:27;11.60;99.90
56336;DHT22;42241;53.510;10.170;2022-08-02T03:35:54;11.60;99.90
56336;DHT22;42241;53.510;10.170;2022-08-02T03:38:21;11.60;99.90
56336;DHT22;42241;53.510;10.170;2022-08-02T03:40:47;11.60;99.90
56336;DHT22;42241;53.510;10.170;2022-08-02T03:43:13;11.60;99.90
56336;DHT22;42241;53.510;10.170;2022-08-02T03:45:40;11.60;99.90
56336;DHT22;42241;53.510;10.170;2022-08-02T03:48:07;11.60;99.90
56336;DHT22;42241;53.510;10.170;2022-08-02T03:50:33;11.70;99.90
56336;DHT22;42241;53.510;10.170;2022-08-02T03:53:00;11.70;99.90
56336;DHT22;42241;53.510;10.170;2022-08-02T03:55:26;11.70;99.90
56336;DHT22;42241;53.510;10.170;2022-08-02T03:57:51;11.70;99.90
56336;DHT22;42241;53.510;10.170;2022-08-02T04:00:18;11.80;99.90
56336;DHT22;42241;53.510;10.170;2022-08-02T04:02:43;11.80;99.90
56336;DHT22;42241;53.510;10.170;2022-08-02T04:05:09;11.80;99.90
56336;DHT22;42241;53.510;10.170;2022-08-02T04:07:35;11.90;99.90
56336;DHT22;42241;53.510;10.170;2022-08-02T04:10:00;11.90;99.90
56336;DHT22;42241;53.510;10.170;2022-08-02T04:12:26;12.00;99.90
56336;DHT22;42241;53.510;10.170;2022-08-02T04:14:52;12.00;99.90
56336;DHT22;42241;53.510;10.170;2022-08-02T04:17:17;12.00;99.90
56336;DHT22;42241;53.510;10.170;2022-08-02T04:19:45;12.00;99.90
56336;DHT22;42241;53.510;10.170;2022-08-02T04:22:15;12.00;99.90
56336;DHT22;42241;53.510;10.170;2022-08-02T04:24:42;11.90;99.90
56336;DHT22;42241;53.510;10.170;2022-08-02T04:27:09;11.80;99.90
56336;DHT22;42241;53.510;10.170;2022-08-02T04:29:35;11.60;99.90
56336;DHT22;42241;53.510;10.170;2022-08-02T04:32:01;11.60;99.90
56336;DHT22;42241;53.510;10.170;2022-08-02T04:34:27;11.50;99.90
56336;DHT22;42241;53.510;10.170;2022-08-02T04:36:53;11.50;99.90
56336;DHT22;42241;53.510;10.170;2022-08-02T04:39:18;11.60;99.90
56336;DHT22;42241;53.510;10.170;2022-08-02T04:41:44;11.50;99.90
56336;DHT22;42241;53.510;10.170;2022-08-02T04:44:11;11.40;99.90
56336;DHT22;42241;53.510;10.170;2022-08-02T04:46:37;11.40;99.90
56336;DHT22;42241;53.510;10.170;2022-08-02T04:49:05;11.30;99.90
56336;DHT22;42241;53.510;10.170;2022-08-02T04:51:37;11.30;99.90
56336;DHT22;42241;53.510;10.170;2022-08-02T04:54:03;11.30;99.90
56336;DHT22;42241;53.510;10.170;2022-08-02T04:56:29;11.30;99.90
56336;DHT22;42241;53.510;10.170;2022-08-02T04:58:54;11.20;99.90
56336;DHT22;42241;53.510;10.170;2022-08-02T05:01:20;11.10;99.90
56336;DHT22;42241;53.510;10.170;2022-08-02T05:03:46;11.10;99.90
56336;DHT22;42241;53.510;10.170;2022-08-02T05:06:11;11.00;99.90
56336;DHT22;42241;53.510;10.170;2022-08-02T05:08:37;11.00;99.90
56336;DHT22;42241;53.510;10.170;2022-08-02T05:11:02;11.00;99.90
56336;DHT22;42241;53.510;10.170;2022-08-02T05:13:28;11.00;99.90
56336;DHT22;42241;53.510;10.170;2022-08-02T05:15:54;11.00;99.90
56336;DHT22;42241;53.510;10.170;2022-08-02T05:18:19;11.00;99.90
56336;DHT22;42241;53.510;10.170;2022-08-02T05:20:45;11.00;99.90
56336;DHT22;42241;53.510;10.170;2022-08-02T05:23:10;11.00;99.90
56336;DHT22;42241;53.510;10.170;2022-08-02T05:25:36;11.10;99.90
56336;DHT22;42241;53.510;10.170;2022-08-02T05:28:02;11.20;99.90
56336;DHT22;42241;53.510;10.170;2022-08-02T05:30:27;11.30;99.90
56336;DHT22;42241;53.510;10.170;2022-08-02T05:32:53;11.40;99.90
56336;DHT22;42241;53.510;10.170;2022-08-02T05:35:19;11.50;99.90
56336;DHT22;42241;53.510;10.170;2022-08-02T05:37:45;11.60;99.90
56336;DHT22;42241;53.510;10.170;2022-08-02T05:40:11;11.60;99.90
56336;DHT22;42241;53.510;10.170;2022-08-02T05:42:37;11.80;99.90
56336;DHT22;42241;53.510;10.170;2022-08-02T05:45:03;12.00;99.90
56336;DHT22;42241;53.510;10.170;2022-08-02T05:47:28;12.10;99.90
56336;DHT22;42241;53.510;10.170;2022-08-02T05:49:54;12.20;99.90
56336;DHT22;42241;53.510;10.170;2022-08-02T05:52:20;12.20;99.90
56336;DHT22;42241;53.510;10.170;2022-08-02T05:57:22;12.50;99.90
56336;DHT22;42241;53.510;10.170;2022-08-02T06:02:26;12.80;99.90
56336;DHT22;42241;53.510;10.170;2022-08-02T06:04:56;13.00;99.90
56336;DHT22;42241;53.510;10.170;2022-08-02T06:07:23;13.10;99.90
56336;DHT22;42241;53.510;10.170;2022-08-02T06:09:49;13.30;99.90
56336;DHT22;42241;53.510;10.170;2022-08-02T06:12:15;13.50;99.90
56336;DHT22;42241;53.510;10.170;2022-08-02T06:14:41;13.60;99.90
56336;DHT22;42241;53.510;10.170;2022-08-02T06:17:07;13.60;99.90
56336;DHT22;42241;53.510;10.170;2022-08-02T06:19:33;13.70;99.90
56336;DHT22;42241;53.510;10.170;2022-08-02T06:22:00;13.80;99.90
56336;DHT22;42241;53.510;10.170;2022-08-02T06:24:43;13.70;99.90
56336;DHT22;42241;53.510;10.170;2022-08-02T06:27:12;13.90;99.90
56336;DHT22;42241;53.510;10.170;2022-08-02T06:29:39;14.00;99.90
56336;DHT22;42241;53.510;10.170;2022-08-02T06:32:05;14.10;99.90
56336;DHT22;42241;53.510;10.170;2022-08-02T06:34:40;14.40;99.90
56336;DHT22;42241;53.510;10.170;2022-08-02T06:39:51;14.70;99.90
56336;DHT22;42241;53.510;10.170;2022-08-02T06:42:30;14.70;99.90
56336;DHT22;42241;53.510;10.170;2022-08-02T06:44:58;14.80;99.90
56336;DHT22;42241;53.510;10.170;2022-08-02T06:47:24;14.90;99.90
56336;DHT22;42241;53.510;10.170;2022-08-02T06:49:50;15.20;99.90
56336;DHT22;42241;53.510;10.170;2022-08-02T06:52:16;15.50;99.90
56336;DHT22;42241;53.510;10.170;2022-08-02T06:54:42;15.50;99.90
56336;DHT22;42241;53.510;10.170;2022-08-02T06:57:07;15.50;99.90
56336;DHT22;42241;53.510;10.170;2022-08-02T06:59:34;15.70;99.90
56336;DHT22;42241;53.510;10.170;2022-08-02T07:01:59;15.70;99.90
56336;DHT22;42241;53.510;10.170;2022-08-02T07:04:26;15.60;99.90
56336;DHT22;42241;53.510;10.170;2022-08-02T07:06:52;15.70;99.90
56336;DHT22;42241;53.510;10.170;2022-08-02T07:09:19;15.90;99.90
56336;DHT22;42241;53.510;10.170;2022-08-02T07:11:45;15.90;99.90
56336;DHT22;42241;53.510;10.170;2022-08-02T07:14:10;16.00;99.90
56336;DHT22;42241;53.510;10.170;2022-08-02T07:16:36;16.30;99.90
56336;DHT22;42241;53.510;10.170;2022-08-02T07:19:02;16.50;99.90
56336;DHT22;42241;53.510;10.170;2022-08-02T07:21:27;16.80;99.90
56336;DHT22;42241;53.510;10.170;2022-08-02T07:23:53;16.90;99.90
56336;DHT22;42241;53.510;10.170;2022-08-02T07:26:19;16.90;99.90
56336;DHT22;42241;53.510;10.170;2022-08-02T07:28:44;16.80;99.90
56336;DHT22;42241;53.510;10.170;2022-08-02T07:31:10;17.10;99.90
56336;DHT22;42241;53.510;10.170;2022-08-02T07:33:35;17.00;99.90
56336;DHT22;42241;53.510;10.170;2022-08-02T07:36:01;17.00;99.90
56336;DHT22;42241;53.510;10.170;2022-08-02T07:38:27;16.90;99.90
56336;DHT22;42241;53.510;10.170;2022-08-02T07:40:53;17.10;99.90
56336;DHT22;42241;53.510;10.170;2022-08-02T07:43:18;17.20;99.90
56336;DHT22;42241;53.510;10.170;2022-08-02T07:45:44;17.30;99.90
56336;DHT22;42241;53.510;10.170;2022-08-02T07:48:09;17.30;99.90
56336;DHT22;42241;53.510;10.170;2022-08-02T07:50:35;17.50;99.90
56336;DHT22;42241;53.510;10.170;2022-08-02T07:53:01;17.90;99.90
56336;DHT22;42241;53.510;10.170;2022-08-02T07:55:26;18.00;99.90
56336;DHT22;42241;53.510;10.170;2022-08-02T07:57:52;18.00;99.90
56336;DHT22;42241;53.510;10.170;2022-08-02T08:00:20;18.40;99.90
56336;DHT22;42241;53.510;10.170;2022-08-02T08:02:46;18.60;99.90
56336;DHT22;42241;53.510;10.170;2022-08-02T08:05:12;18.60;99.90
56336;DHT22;42241;53.510;10.170;2022-08-02T08:07:38;18.30;99.90
56336;DHT22;42241;53.510;10.170;2022-08-02T08:10:04;18.60;99.90
56336;DHT22;42241;53.510;10.170;2022-08-02T08:12:30;19.10;99.90
56336;DHT22;42241;53.510;10.170;2022-08-02T08:14:55;19.40;99.90
56336;DHT22;42241;53.510;10.170;2022-08-02T08:17:21;19.30;99.90
56336;DHT22;42241;53.510;10.170;2022-08-02T08:19:46;19.40;99.90
56336;DHT22;42241;53.510;10.170;2022-08-02T08:22:13;19.80;99.90
56336;DHT22;42241;53.510;10.170;2022-08-02T08:24:38;19.80;99.90
56336;DHT22;42241;53.510;10.170;2022-08-02T08:27:04;19.80;99.90
56336;DHT22;42241;53.510;10.170;2022-08-02T08:29:30;20.20;99.90
56336;DHT22;42241;53.510;10.170;2022-08-02T08:31:55;20.30;99.90
56336;DHT22;42241;53.510;10.170;2022-08-02T08:34:21;20.60;99.90
56336;DHT22;42241;53.510;10.170;2022-08-02T08:36:48;20.80;99.90
56336;DHT22;42241;53.510;10.170;2022-08-02T08:39:14;20.80;99.90
56336;DHT22;42241;53.510;10.170;2022-08-02T08:41:40;21.10;99.90
56336;DHT22;42241;53.510;10.170;2022-08-02T08:44:07;21.40;99.90
56336;DHT22;42241;53.510;10.170;2022-08-02T08:46:32;22.00;99.90
56336;DHT22;42241;53.510;10.170;2022-08-02T08:49:08;21.90;99.90
56336;DHT22;42241;53.510;10.170;2022-08-02T08:51:36;22.80;99.90
56336;DHT22;42241;53.510;10.170;2022-08-02T08:54:03;24.60;99.90
56336;DHT22;42241;53.510;10.170;2022-08-02T08:56:33;26.60;99.90
56336;DHT22;42241;53.510;10.170;2022-08-02T08:59:00;27.70;99.90
56336;DHT22;42241;53.510;10.170;2022-08-02T09:01:26;29.50;91.90
56336;DHT22;42241;53.510;10.170;2022-08-02T09:03:51;29.90;80.90
56336;DHT22;42241;53.510;10.170;2022-08-02T09:06:17;30.00;78.20
56336;DHT22;42241;53.510;10.170;2022-08-02T09:08:42;32.00;75.50
56336;DHT22;42241;53.510;10.170;2022-08-02T09:11:18;33.80;65.50
56336;DHT22;42241;53.510;10.170;2022-08-02T09:13:47;34.90;56.60
56336;DHT22;42241;53.510;10.170;2022-08-02T09:16:13;32.80;55.50
56336;DHT22;42241;53.510;10.170;2022-08-02T09:18:42;33.70;55.30
56336;DHT22;42241;53.510;10.170;2022-08-02T09:21:11;34.40;56.00
56336;DHT22;42241;53.510;10.170;2022-08-02T09:23:38;34.80;52.80
56336;DHT22;42241;53.510;10.170;2022-08-02T09:26:05;34.10;52.40
56336;DHT22;42241;53.510;10.170;2022-08-02T09:28:34;35.00;50.30
56336;DHT22;42241;53.510;10.170;2022-08-02T09:33:29;34.30;50.90
56336;DHT22;42241;53.510;10.170;2022-08-02T09:35:58;33.10;52.30
56336;DHT22;42241;53.510;10.170;2022-08-02T09:38:24;34.80;50.60
56336;DHT22;42241;53.510;10.170;2022-08-02T09:40:50;35.10;47.90
56336;DHT22;42241;53.510;10.170;2022-08-02T09:43:15;35.70;45.60
56336;DHT22;42241;53.510;10.170;2022-08-02T09:45:41;35.60;47.30
56336;DHT22;42241;53.510;10.170;2022-08-02T09:48:07;36.50;45.30
56336;DHT22;42241;53.510;10.170;2022-08-02T09:50:36;34.90;45.00
56336;DHT22;42241;53.510;10.170;2022-08-02T09:53:02;33.20;47.10
56336;DHT22;42241;53.510;10.170;2022-08-02T09:55:28;31.80;50.20
56336;DHT22;42241;53.510;10.170;2022-08-02T09:57:54;32.40;48.40
56336;DHT22;42241;53.510;10.170;2022-08-02T10:00:19;34.40;49.40
56336;DHT22;42241;53.510;10.170;2022-08-02T10:03:07;36.40;46.20
56336;DHT22;42241;53.510;10.170;2022-08-02T10:05:44;37.20;42.50
56336;DHT22;42241;53.510;10.170;2022-08-02T10:08:09;38.00;39.90
56336;DHT22;42241;53.510;10.170;2022-08-02T10:10:35;37.70;39.20
56336;DHT22;42241;53.510;10.170;2022-08-02T10:13:00;36.80;40.70
56336;DHT22;42241;53.510;10.170;2022-08-02T10:15:27;38.20;40.80
56336;DHT22;42241;53.510;10.170;2022-08-02T10:17:52;39.60;39.80
56336;DHT22;42241;53.510;10.170;2022-08-02T10:20:20;39.40;37.00
56336;DHT22;42241;53.510;10.170;2022-08-02T10:22:46;40.20;34.00
56336;DHT22;42241;53.510;10.170;2022-08-02T10:25:12;41.90;33.30
56336;DHT22;42241;53.510;10.170;2022-08-02T10:27:38;42.30;32.10
56336;DHT22;42241;53.510;10.170;2022-08-02T10:30:03;43.20;31.20
56336;DHT22;42241;53.510;10.170;2022-08-02T10:32:30;42.00;30.60
56336;DHT22;42241;53.510;10.170;2022-08-02T10:35:05;39.60;31.30
56336;DHT22;42241;53.510;10.170;2022-08-02T10:37:32;39.80;32.50
56336;DHT22;42241;53.510;10.170;2022-08-02T10:39:59;41.00;31.70
56336;DHT22;42241;53.510;10.170;2022-08-02T10:42:46;41.80;30.10
56336;DHT22;42241;53.510;10.170;2022-08-02T10:45:12;43.10;30.80
56336;DHT22;42241;53.510;10.170;2022-08-02T10:47:39;43.90;29.20
56336;DHT22;42241;53.510;10.170;2022-08-02T10:50:20;44.90;28.50
56336;DHT22;42241;53.510;10.170;2022-08-02T10:53:19;45.20;28.20
56336;DHT22;42241;53.510;10.170;2022-08-02T10:55:44;45.70;27.30
56336;DHT22;42241;53.510;10.170;2022-08-02T10:58:17;44.60;26.30
56336;DHT22;42241;53.510;10.170;2022-08-02T11:00:46;43.30;27.90
56336;DHT22;42241;53.510;10.170;2022-08-02T11:08:28;45.20;25.90
56336;DHT22;42241;53.510;10.170;2022-08-02T11:10:57;46.20;26.60
56336;DHT22;42241;53.510;10.170;2022-08-02T11:13:24;46.40;25.70
56336;DHT22;42241;53.510;10.170;2022-08-02T11:18:17;45.60;25.50
56336;DHT22;42241;53.510;10.170;2022-08-02T11:20:43;45.80;25.10
56336;DHT22;42241;53.510;10.170;2022-08-02T11:28:53;45.60;24.80
56336;DHT22;42241;53.510;10.170;2022-08-02T11:31:19;46.70;25.10
56336;DHT22;42241;53.510;10.170;2022-08-02T11:33:47;46.50;23.90
56336;DHT22;42241;53.510;10.170;2022-08-02T11:36:12;46.20;23.60
56336;DHT22;42241;53.510;10.170;2022-08-02T11:38:39;43.50;25.70
56336;DHT22;42241;53.510;10.170;2022-08-02T11:41:04;41.60;26.00
56336;DHT22;42241;53.510;10.170;2022-08-02T11:43:30;42.90;25.50
56336;DHT22;42241;53.510;10.170;2022-08-02T11:45:56;44.70;24.90
56336;DHT22;42241;53.510;10.170;2022-08-02T11:48:28;46.00;24.60
56336;DHT22;42241;53.510;10.170;2022-08-02T11:53:28;43.80;24.80
56336;DHT22;42241;53.510;10.170;2022-08-02T11:55:58;42.60;25.60
56336;DHT22;42241;53.510;10.170;2022-08-02T11:58:23;42.10;26.80
56336;DHT22;42241;53.510;10.170;2022-08-02T12:00:49;41.90;26.90
56336;DHT22;42241;53.510;10.170;2022-08-02T12:03:14;39.30;27.60
56336;DHT22;42241;53.510;10.170;2022-08-02T12:05:40;39.00;29.00
56336;DHT22;42241;53.510;10.170;2022-08-02T12:08:12;39.40;28.50
56336;DHT22;42241;53.510;10.170;2022-08-02T12:10:49;38.20;29.30
56336;DHT22;42241;53.510;10.170;2022-08-02T12:13:15;37.50;31.30
56336;DHT22;42241;53.510;10.170;2022-08-02T12:15:41;36.00;31.00
56336;DHT22;42241;53.510;10.170;2022-08-02T12:18:16;34.40;34.30
56336;DHT22;42241;53.510;10.170;2022-08-02T12:21:01;32.40;35.80
56336;DHT22;42241;53.510;10.170;2022-08-02T12:23:26;31.30;38.60
56336;DHT22;42241;53.510;10.170;2022-08-02T12:26:25;31.30;39.80
56336;DHT22;42241;53.510;10.170;2022-08-02T12:28:44;30.60;38.40
56336;DHT22;42241;53.510;10.170;2022-08-02T12:31:10;30.10;42.20
56336;DHT22;42241;53.510;10.170;2022-08-02T12:33:47;29.90;40.70
56336;DHT22;42241;53.510;10.170;2022-08-02T12:36:16;29.70;40.60
56336;DHT22;42241;53.510;10.170;2022-08-02T12:38:49;29.70;41.50
56336;DHT22;42241;53.510;10.170;2022-08-02T12:41:15;29.60;42.70
56336;DHT22;42241;53.510;10.170;2022-08-02T12:43:41;29.20;42.00
56336;DHT22;42241;53.510;10.170;2022-08-02T12:46:13;29.30;42.30
56336;DHT22;42241;53.510;10.170;2022-08-02T12:48:39;28.60;42.20
56336;DHT22;42241;53.510;10.170;2022-08-02T12:51:27;28.10;45.60
56336;DHT22;42241;53.510;10.170;2022-08-02T12:53:54;28.30;45.10
56336;DHT22;42241;53.510;10.170;2022-08-02T12:56:35;28.20;44.60
56336;DHT22;42241;53.510;10.170;2022-08-02T12:59:02;28.40;44.50
56336;DHT22;42241;53.510;10.170;2022-08-02T13:01:28;28.60;45.80
56336;DHT22;42241;53.510;10.170;2022-08-02T13:03:54;28.50;45.10
56336;DHT22;42241;53.510;10.170;2022-08-02T13:06:20;28.30;46.00
56336;DHT22;42241;53.510;10.170;2022-08-02T13:08:45;27.50;44.10
56336;DHT22;42241;53.510;10.170;2022-08-02T13:11:11;27.30;45.90
56336;DHT22;42241;53.510;10.170;2022-08-02T13:13:37;27.30;46.90
56336;DHT22;42241;53.510;10.170;2022-08-02T13:16:02;27.30;45.60
56336;DHT22;42241;53.510;10.170;2022-08-02T13:18:28;27.40;46.40
56336;DHT22;42241;53.510;10.170;2022-08-02T13:20:53;27.50;47.00
56336;DHT22;42241;53.510;10.170;2022-08-02T13:23:19;27.60;46.10
56336;DHT22;42241;53.510;10.170;2022-08-02T13:25:45;27.70;46.00
56336;DHT22;42241;53.510;10.170;2022-08-02T13:28:10;27.80;46.00
56336;DHT22;42241;53.510;10.170;2022-08-02T13:30:36;27.60;44.60
56336;DHT22;42241;53.510;10.170;2022-08-02T13:33:02;27.80;47.00
56336;DHT22;42241;53.510;10.170;2022-08-02T13:35:27;27.90;46.10
56336;DHT22;42241;53.510;10.170;2022-08-02T13:37:53;28.00;46.90
56336;DHT22;42241;53.510;10.170;2022-08-02T13:40:18;28.20;47.70
56336;DHT22;42241;53.510;10.170;2022-08-02T13:42:45;28.10;46.60
56336;DHT22;42241;53.510;10.170;2022-08-02T13:45:10;28.00;45.20
56336;DHT22;42241;53.510;10.170;2022-08-02T13:47:37;27.90;44.40
56336;DHT22;42241;53.510;10.170;2022-08-02T13:50:02;27.90;44.40
56336;DHT22;42241;53.510;10.170;2022-08-02T13:52:28;27.80;45.20
56336;DHT22;42241;53.510;10.170;2022-08-02T13:54:54;27.60;46.20
56336;DHT22;42241;53.510;10.170;2022-08-02T13:57:20;27.70;46.10
56336;DHT22;42241;53.510;10.170;2022-08-02T13:59:45;27.90;46.80
56336;DHT22;42241;53.510;10.170;2022-08-02T14:02:11;28.00;47.00
56336;DHT22;42241;53.510;10.170;2022-08-02T14:04:36;28.00;44.70
56336;DHT22;42241;53.510;10.170;2022-08-02T14:07:03;28.10;46.50
56336;DHT22;42241;53.510;10.170;2022-08-02T14:09:28;28.10;46.40
56336;DHT22;42241;53.510;10.170;2022-08-02T14:12:03;28.00;45.50
56336;DHT22;42241;53.510;10.170;2022-08-02T14:14:29;27.30;46.80
56336;DHT22;42241;53.510;10.170;2022-08-02T14:16:54;26.80;48.00
56336;DHT22;42241;53.510;10.170;2022-08-02T14:19:20;26.80;47.50
56336;DHT22;42241;53.510;10.170;2022-08-02T14:21:46;26.70;48.30
56336;DHT22;42241;53.510;10.170;2022-08-02T14:24:12;26.60;48.10
56336;DHT22;42241;53.510;10.170;2022-08-02T14:26:38;26.60;48.10
56336;DHT22;42241;53.510;10.170;2022-08-02T14:29:03;26.50;49.20
56336;DHT22;42241;53.510;10.170;2022-08-02T14:31:29;26.80;48.80
56336;DHT22;42241;53.510;10.170;2022-08-02T14:33:55;26.90;49.10
56336;DHT22;42241;53.510;10.170;2022-08-02T14:36:20;27.00;48.70
56336;DHT22;42241;53.510;10.170;2022-08-02T14:38:46;27.20;48.10
56336;DHT22;42241;53.510;10.170;2022-08-02T14:41:12;27.10;49.00
56336;DHT22;42241;53.510;10.170;2022-08-02T14:43:38;27.20;49.70
56336;DHT22;42241;53.510;10.170;2022-08-02T14:46:22;27.20;50.30
56336;DHT22;42241;53.510;10.170;2022-08-02T14:48:48;27.00;49.50
56336;DHT22;42241;53.510;10.170;2022-08-02T14:51:13;27.10;49.50
56336;DHT22;42241;53.510;10.170;2022-08-02T14:53:39;27.00;49.40
56336;DHT22;42241;53.510;10.170;2022-08-02T14:56:05;26.90;50.20
56336;DHT22;42241;53.510;10.170;2022-08-02T14:58:30;26.60;51.50
56336;DHT22;42241;53.510;10.170;2022-08-02T15:00:56;26.50;52.00
56336;DHT22;42241;53.510;10.170;2022-08-02T15:03:26;26.40;51.70
56336;DHT22;42241;53.510;10.170;2022-08-02T15:05:55;26.60;53.10
56336;DHT22;42241;53.510;10.170;2022-08-02T15:08:21;26.70;52.80
56336;DHT22;42241;53.510;10.170;2022-08-02T15:10:46;26.90;54.30
56336;DHT22;42241;53.510;10.170;2022-08-02T15:13:12;26.80;53.20
56336;DHT22;42241;53.510;10.170;2022-08-02T15:15:37;26.80;53.90
56336;DHT22;42241;53.510;10.170;2022-08-02T15:18:06;26.80;53.20
56336;DHT22;42241;53.510;10.170;2022-08-02T15:20:31;26.40;54.20
56336;DHT22;42241;53.510;10.170;2022-08-02T15:22:57;26.60;55.20
56336;DHT22;42241;53.510;10.170;2022-08-02T15:25:23;26.90;54.10
56336;DHT22;42241;53.510;10.170;2022-08-02T15:27:48;26.90;53.90
56336;DHT22;42241;53.510;10.170;2022-08-02T15:30:14;26.80;56.00
56336;DHT22;42241;53.510;10.170;2022-08-02T15:32:39;26.50;53.90
56336;DHT22;42241;53.510;10.170;2022-08-02T15:35:05;26.60;56.70
56336;DHT22;42241;53.510;10.170;2022-08-02T15:37:31;26.50;55.10
56336;DHT22;42241;53.510;10.170;2022-08-02T15:39:58;26.60;56.10
56336;DHT22;42241;53.510;10.170;2022-08-02T15:42:23;26.60;56.00
56336;DHT22;42241;53.510;10.170;2022-08-02T15:44:49;26.60;56.80
56336;DHT22;42241;53.510;10.170;2022-08-02T15:47:15;26.60;58.10